createdAt,value
2023-03-29T00:02:03.993Z,94213.13
2023-03-29T00:04:30.823Z,94213.53
2023-03-29T00:06:57.836Z,94200.78
2023-03-29T00:09:26.672Z,94199.81
2023-03-29T00:11:53.507Z,94201.97
2023-03-29T00:14:20.197Z,94198.47
2023-03-29T00:16:47.157Z,94198.06
2023-03-29T00:19:13.988Z,94194.34
2023-03-29T00:21:40.870Z,94197.78
2023-03-29T00:24:07.806Z,94208.69
2023-03-29T00:26:34.464Z,94200.13
2023-03-29T00:29:01.193Z,94200.38
2023-03-29T00:31:28.481Z,94184.59
2023-03-29T00:33:55.243Z,94183.06
2023-03-29T00:36:22.158Z,94179.59
2023-03-29T00:38:49.056Z,94179.34
2023-03-29T00:41:15.887Z,94185.97
2023-03-29T00:44:00.789Z,94184.56
2023-03-29T00:46:30.163Z,94189.25
2023-03-29T00:49:02.324Z,94196.31
2023-03-29T00:51:32.948Z,94194.00
2023-03-29T00:54:03.421Z,94184.25
2023-03-29T00:56:37.055Z,94180.28
2023-03-29T00:59:15.650Z,94191.69
2023-03-29T01:01:50.488Z,94201.38
2023-03-29T01:04:25.944Z,94196.84
2023-03-29T01:07:04.060Z,94187.38
2023-03-29T01:09:33.864Z,94173.69
2023-03-29T01:12:05.540Z,94166.31
2023-03-29T01:14:39.054Z,94161.50
2023-03-29T01:17:06.665Z,94179.53
2023-03-29T01:19:42.270Z,94177.50
2023-03-29T01:22:17.999Z,94172.53
2023-03-29T01:25:00.254Z,94188.19
2023-03-29T01:27:58.379Z,94196.00
2023-03-29T01:30:37.317Z,94179.03
2023-03-29T01:33:23.389Z,94170.22
2023-03-29T01:36:19.090Z,94174.22
2023-03-29T01:39:04.913Z,94162.66
2023-03-29T01:42:01.821Z,94170.19
2023-03-29T01:44:42.965Z,94166.28
2023-03-29T01:47:54.691Z,94154.19
2023-03-29T01:50:43.221Z,94141.31
2023-03-29T01:53:25.007Z,94128.16
2023-03-29T01:56:11.802Z,94125.72
2023-03-29T01:58:44.774Z,94127.75
2023-03-29T02:01:17.727Z,94132.75
2023-03-29T02:03:49.846Z,94132.75
2023-03-29T02:06:20.633Z,94116.19
2023-03-29T02:08:47.974Z,94124.81
2023-03-29T02:11:14.648Z,94129.91
2023-03-29T02:13:41.530Z,94124.31
2023-03-29T02:16:14.258Z,94120.91
2023-03-29T02:18:46.511Z,94134.50
2023-03-29T02:21:21.307Z,94145.78
2023-03-29T02:23:50.508Z,94146.13
2023-03-29T02:26:17.914Z,94146.53
2023-03-29T02:28:44.558Z,94139.25
2023-03-29T02:31:29.400Z,94143.16
2023-03-29T02:34:31.596Z,94149.31
2023-03-29T02:37:06.912Z,94141.94
2023-03-29T02:39:35.059Z,94137.56
2023-03-29T02:42:03.711Z,94121.00
2023-03-29T02:44:33.179Z,94117.97
2023-03-29T02:47:06.506Z,94128.53
2023-03-29T02:49:33.253Z,94127.81
2023-03-29T02:52:08.548Z,94117.34
2023-03-29T02:54:38.006Z,94121.91
2023-03-29T02:57:08.655Z,94109.47
2023-03-29T02:59:35.991Z,94112.19
2023-03-29T03:02:03.258Z,94102.06
2023-03-29T03:04:30.499Z,94099.63
2023-03-29T03:06:57.546Z,94106.16
2023-03-29T03:09:24.231Z,94077.78
2023-03-29T03:11:51.200Z,94063.66
2023-03-29T03:14:19.052Z,94062.97
2023-03-29T03:16:45.853Z,94080.19
2023-03-29T03:19:13.272Z,94077.41
2023-03-29T03:21:39.929Z,94080.19
2023-03-29T03:24:07.648Z,94085.72
2023-03-29T03:26:35.877Z,94098.06
2023-03-29T03:29:02.585Z,94092.53
2023-03-29T03:31:29.269Z,94096.03
2023-03-29T03:33:56.676Z,94092.19
2023-03-29T03:36:28.970Z,94093.53
2023-03-29T03:38:55.725Z,94103.28
2023-03-29T03:41:22.856Z,94120.44
2023-03-29T03:43:49.623Z,94134.34
2023-03-29T03:46:17.221Z,94130.69
2023-03-29T03:48:44.987Z,94117.41
2023-03-29T03:51:11.914Z,94112.63
2023-03-29T03:53:39.682Z,94103.22
2023-03-29T03:56:09.821Z,94090.78
2023-03-29T03:58:37.529Z,94061.81
2023-03-29T04:01:05.482Z,94055.66
2023-03-29T04:03:32.149Z,94067.47
2023-03-29T04:06:02.911Z,94074.91
2023-03-29T04:08:30.268Z,94074.81
2023-03-29T04:10:58.420Z,94087.06
2023-03-29T04:13:26.431Z,94079.34
2023-03-29T04:15:58.784Z,94077.03
2023-03-29T04:18:27.580Z,94082.53
2023-03-29T04:20:54.307Z,94080.97
2023-03-29T04:23:22.889Z,94078.63
2023-03-29T04:25:49.496Z,94077.06
2023-03-29T04:28:16.254Z,94078.50
2023-03-29T04:30:42.946Z,94082.00
2023-03-29T04:33:10.368Z,94074.63
2023-03-29T04:35:37.736Z,94076.47
2023-03-29T04:38:04.521Z,94079.38
2023-03-29T04:40:31.375Z,94067.50
2023-03-29T04:43:00.082Z,94075.69
2023-03-29T04:45:26.800Z,94078.41
2023-03-29T04:47:57.131Z,94064.47
2023-03-29T04:50:23.782Z,94064.44
2023-03-29T04:52:50.937Z,94078.13
2023-03-29T04:55:17.764Z,94066.13
2023-03-29T04:57:47.199Z,94068.09
2023-03-29T05:00:15.388Z,94063.53
2023-03-29T05:02:44.215Z,94073.63
2023-03-29T05:05:11.951Z,94070.06
2023-03-29T05:07:39.396Z,94064.28
2023-03-29T05:10:07.136Z,94068.97
2023-03-29T05:12:33.784Z,94067.03
2023-03-29T05:15:00.433Z,94073.19
2023-03-29T05:17:27.485Z,94063.53
2023-03-29T05:19:54.780Z,94072.47
2023-03-29T05:22:21.774Z,94074.44
2023-03-29T05:24:48.643Z,94073.31
2023-03-29T05:27:16.994Z,94069.06
2023-03-29T05:29:44.776Z,94065.94
2023-03-29T05:32:11.736Z,94071.38
2023-03-29T05:34:39.281Z,94074.09
2023-03-29T05:37:06.107Z,94069.13
2023-03-29T05:39:35.729Z,94068.00
2023-03-29T05:42:04.616Z,94071.06
2023-03-29T05:44:31.488Z,94067.25
2023-03-29T05:46:58.256Z,94070.41
2023-03-29T05:49:25.678Z,94071.22
2023-03-29T05:51:56.928Z,94069.16
2023-03-29T05:54:24.458Z,94080.44
2023-03-29T05:56:51.369Z,94085.94
2023-03-29T05:59:19.499Z,94093.00
2023-03-29T06:01:49.367Z,94089.19
2023-03-29T06:04:18.200Z,94092.59
2023-03-29T06:06:44.985Z,94094.56
2023-03-29T06:09:11.720Z,94093.06
2023-03-29T06:11:38.352Z,94089.94
2023-03-29T06:14:05.200Z,94082.22
2023-03-29T06:16:32.432Z,94081.09
2023-03-29T06:18:59.211Z,94081.22
2023-03-29T06:21:28.192Z,94078.59
2023-03-29T06:23:54.992Z,94078.66
2023-03-29T06:26:21.748Z,94091.06
2023-03-29T06:28:51.400Z,94087.22
2023-03-29T06:31:19.851Z,94088.28
2023-03-29T06:33:46.861Z,94087.16
2023-03-29T06:36:16.164Z,94072.41
2023-03-29T06:38:45.605Z,94078.28
2023-03-29T06:41:12.295Z,94090.78
2023-03-29T06:43:39.225Z,94088.41
2023-03-29T06:46:11.917Z,94078.50
2023-03-29T06:48:39.891Z,94078.66
2023-03-29T06:51:07.666Z,94074.00
2023-03-29T06:53:34.959Z,94072.13
2023-03-29T06:56:05.431Z,94077.97
2023-03-29T06:58:32.125Z,94074.13
2023-03-29T07:01:02.677Z,94067.84
2023-03-29T07:03:30.052Z,94069.47
2023-03-29T07:06:04.018Z,94068.69
2023-03-29T07:08:31.593Z,94069.88
2023-03-29T07:10:59.607Z,94076.91
2023-03-29T07:13:26.456Z,94071.47
2023-03-29T07:15:53.265Z,94073.78
2023-03-29T07:18:20.287Z,94071.03
2023-03-29T07:20:48.405Z,94081.56
2023-03-29T07:23:15.432Z,94074.94
2023-03-29T07:25:42.178Z,94073.78
2023-03-29T07:28:09.217Z,94073.00
2023-03-29T07:30:37.136Z,94079.59
2023-03-29T07:33:04.507Z,94072.47
2023-03-29T07:35:31.322Z,94070.06
2023-03-29T07:37:58.619Z,94070.81
2023-03-29T07:40:27.265Z,94081.69
2023-03-29T07:42:56.559Z,94090.53
2023-03-29T07:45:26.071Z,94079.84
2023-03-29T07:47:58.948Z,94078.75
2023-03-29T07:50:26.783Z,94084.25
2023-03-29T07:52:53.824Z,94088.31
2023-03-29T07:55:20.825Z,94100.56
2023-03-29T07:57:49.231Z,94096.31
2023-03-29T08:00:16.937Z,94089.16
2023-03-29T08:02:49.782Z,94082.66
2023-03-29T08:05:26.090Z,94088.03
2023-03-29T08:07:53.032Z,94091.69
2023-03-29T08:10:21.981Z,94094.69
2023-03-29T08:12:50.445Z,94102.75
2023-03-29T08:15:17.236Z,94102.75
2023-03-29T08:17:43.976Z,94111.56
2023-03-29T08:20:13.766Z,94106.53
2023-03-29T08:22:40.556Z,94109.09
2023-03-29T08:25:08.071Z,94096.22
2023-03-29T08:27:35.361Z,94113.72
2023-03-29T08:30:01.994Z,94106.69
2023-03-29T08:32:28.684Z,94108.69
2023-03-29T08:34:55.480Z,94101.06
2023-03-29T08:37:24.616Z,94099.31
2023-03-29T08:39:51.653Z,94095.44
2023-03-29T08:42:40.904Z,94094.56
2023-03-29T08:45:16.440Z,94089.00
2023-03-29T08:48:12.409Z,94085.97
2023-03-29T08:50:49.469Z,94091.06
2023-03-29T08:53:30.986Z,94093.25
2023-03-29T08:56:01.804Z,94102.38
2023-03-29T08:58:32.608Z,94097.56
2023-03-29T09:01:06.106Z,94105.22
2023-03-29T09:03:39.134Z,94101.44
2023-03-29T09:06:10.997Z,94092.94
2023-03-29T09:08:41.438Z,94093.19
2023-03-29T09:11:08.134Z,94086.72
2023-03-29T09:14:02.763Z,94080.19
2023-03-29T09:17:14.681Z,94074.06
2023-03-29T09:19:55.117Z,94077.06
2023-03-29T09:23:02.281Z,94075.41
2023-03-29T09:25:43.833Z,94080.84
2023-03-29T09:28:27.100Z,94071.22
2023-03-29T09:31:12.301Z,94066.00
2023-03-29T09:34:03.714Z,94073.78
2023-03-29T09:36:53.618Z,94070.50
2023-03-29T09:39:22.206Z,94072.63
2023-03-29T09:42:09.087Z,94073.94
2023-03-29T09:44:44.018Z,94069.09
2023-03-29T09:47:16.716Z,94062.56
2023-03-29T09:49:57.583Z,94067.22
2023-03-29T09:52:24.304Z,94066.97
2023-03-29T09:54:52.457Z,94073.91
2023-03-29T09:57:20.656Z,94067.53
2023-03-29T09:59:50.315Z,94067.09
2023-03-29T10:02:21.155Z,94058.50
2023-03-29T10:04:55.450Z,94064.81
2023-03-29T10:07:22.755Z,94061.63
2023-03-29T10:09:52.598Z,94066.28
2023-03-29T10:12:19.978Z,94062.03
2023-03-29T10:14:53.518Z,94071.78
2023-03-29T10:17:32.716Z,94071.59
2023-03-29T10:20:04.141Z,94074.56
2023-03-29T10:22:37.748Z,94070.22
2023-03-29T10:25:12.681Z,94077.41
2023-03-29T10:27:42.392Z,94076.53
2023-03-29T10:30:12.933Z,94077.38
2023-03-29T10:32:41.237Z,94082.50
2023-03-29T10:35:25.013Z,94066.81
2023-03-29T10:37:53.647Z,94070.25
2023-03-29T10:40:34.637Z,94069.06
2023-03-29T10:43:12.993Z,94065.81
2023-03-29T10:45:40.998Z,94053.91
2023-03-29T10:48:13.002Z,94056.50
2023-03-29T10:50:39.775Z,94051.06
2023-03-29T10:53:15.100Z,94040.22
2023-03-29T10:55:57.257Z,94048.03
2023-03-29T10:58:42.170Z,94036.59
2023-03-29T11:01:27.120Z,94039.91
2023-03-29T11:04:18.567Z,94043.25
2023-03-29T11:07:14.895Z,94032.66
2023-03-29T11:10:04.833Z,94033.47
2023-03-29T11:13:02.314Z,94034.00
2023-03-29T11:15:52.792Z,94028.09
2023-03-29T11:18:46.030Z,94031.81
2023-03-29T11:21:33.374Z,94025.88
2023-03-29T11:24:18.303Z,94037.88
2023-03-29T11:26:56.842Z,94039.44
2023-03-29T11:29:31.615Z,94031.50
2023-03-29T11:32:08.885Z,94025.31
2023-03-29T11:35:03.251Z,94028.75
2023-03-29T11:37:38.709Z,94041.16
2023-03-29T11:40:36.741Z,94030.72
2023-03-29T11:43:09.478Z,94036.69
2023-03-29T11:45:41.220Z,94028.34
2023-03-29T11:48:18.921Z,94034.50
2023-03-29T11:51:02.618Z,94029.16
2023-03-29T11:53:57.027Z,94029.94
2023-03-29T11:56:34.964Z,94027.53
2023-03-29T11:59:10.350Z,94026.47
2023-03-29T12:01:48.689Z,94023.59
2023-03-29T12:04:26.042Z,94033.03
2023-03-29T12:07:17.373Z,94022.47
2023-03-29T12:09:54.196Z,94024.38
2023-03-29T12:12:27.061Z,94021.59
2023-03-29T12:15:17.213Z,94031.59
2023-03-29T12:17:54.823Z,94014.19
2023-03-29T12:20:28.175Z,94016.09
2023-03-29T12:22:55.552Z,94018.75
2023-03-29T12:25:30.239Z,94025.59
2023-03-29T12:28:19.193Z,94014.16
2023-03-29T12:31:03.343Z,94008.72
2023-03-29T12:33:40.242Z,94009.19
2023-03-29T12:36:21.435Z,94002.31
2023-03-29T12:38:52.418Z,94003.78
2023-03-29T12:41:21.878Z,94004.00
2023-03-29T12:43:48.940Z,94000.59
2023-03-29T12:46:24.266Z,93990.06
2023-03-29T12:49:05.714Z,93996.22
2023-03-29T12:51:35.050Z,93987.97
2023-03-29T12:54:22.598Z,93987.84
2023-03-29T12:56:52.538Z,93985.00
2023-03-29T12:59:34.675Z,93992.59
2023-03-29T13:02:17.803Z,93985.63
2023-03-29T13:05:00.259Z,93982.75
2023-03-29T13:07:33.345Z,93985.59
2023-03-29T13:10:03.359Z,93980.56
2023-03-29T13:12:36.104Z,93985.72
2023-03-29T13:15:07.307Z,93982.53
2023-03-29T13:18:04.017Z,93984.56
2023-03-29T13:20:39.920Z,93977.19
2023-03-29T13:23:36.437Z,93984.72
2023-03-29T13:26:22.018Z,93977.78
2023-03-29T13:29:13.743Z,93983.53
2023-03-29T13:32:32.670Z,93976.88
2023-03-29T13:35:06.280Z,93985.69
2023-03-29T13:37:53.224Z,93979.16
2023-03-29T13:40:43.095Z,93968.94
2023-03-29T13:43:11.016Z,93968.81
2023-03-29T13:45:38.857Z,93971.81
2023-03-29T13:48:28.984Z,93968.13
2023-03-29T13:51:08.058Z,93965.78
2023-03-29T13:53:41.058Z,93967.16
2023-03-29T13:56:15.508Z,93966.59
2023-03-29T13:58:48.945Z,93977.31
2023-03-29T14:01:16.507Z,93969.16
2023-03-29T14:03:46.467Z,93976.38
2023-03-29T14:06:17.740Z,93967.97
2023-03-29T14:08:45.328Z,93980.19
2023-03-29T14:11:29.712Z,93959.50
2023-03-29T14:14:02.831Z,93967.19
2023-03-29T14:16:32.870Z,93953.19
2023-03-29T14:19:03.010Z,93950.31
2023-03-29T14:21:29.944Z,93952.19
2023-03-29T14:24:00.618Z,93948.41
2023-03-29T14:26:33.070Z,93943.66
2023-03-29T14:29:01.445Z,93953.66
2023-03-29T14:31:37.266Z,93942.16
2023-03-29T14:34:07.929Z,93951.97
2023-03-29T14:36:36.463Z,93953.19
2023-03-29T14:39:15.812Z,93946.44
2023-03-29T14:41:50.099Z,93951.19
2023-03-29T14:44:19.750Z,93949.31
2023-03-29T14:46:49.235Z,93938.53
2023-03-29T14:49:18.530Z,93939.69
2023-03-29T14:51:47.038Z,93933.03
2023-03-29T14:54:23.292Z,93941.22
2023-03-29T14:56:51.523Z,93939.34
2023-03-29T14:59:27.313Z,93938.25
2023-03-29T15:01:54.466Z,93937.53
2023-03-29T15:04:21.143Z,93933.44
2023-03-29T15:06:50.688Z,93930.81
2023-03-29T15:09:27.661Z,93932.41
2023-03-29T15:11:56.742Z,93922.81
2023-03-29T15:14:26.946Z,93925.22
2023-03-29T15:17:01.181Z,93926.00
2023-03-29T15:19:28.229Z,93921.88
2023-03-29T15:21:54.938Z,93913.81
2023-03-29T15:24:48.260Z,93913.88
2023-03-29T15:27:17.892Z,93916.53
2023-03-29T15:29:47.260Z,93921.19
2023-03-29T15:32:22.620Z,93911.41
2023-03-29T15:35:05.080Z,93912.09
2023-03-29T15:37:32.315Z,93919.16
2023-03-29T15:39:59.214Z,93914.84
2023-03-29T15:42:26.222Z,93924.03
2023-03-29T15:44:56.476Z,93918.47
2023-03-29T15:47:24.133Z,93931.97
2023-03-29T15:49:51.050Z,93923.63
2023-03-29T15:52:17.689Z,93924.31
2023-03-29T15:54:44.546Z,93927.84
2023-03-29T15:57:14.883Z,93925.38
2023-03-29T15:59:43.270Z,93919.97
2023-03-29T16:02:20.123Z,93915.72
2023-03-29T16:04:46.857Z,93914.78
2023-03-29T16:07:16.404Z,93924.38
2023-03-29T16:09:43.996Z,93919.47
2023-03-29T16:12:11.096Z,93922.72
2023-03-29T16:14:38.169Z,93916.34
2023-03-29T16:17:06.018Z,93918.53
2023-03-29T16:19:33.843Z,93918.28
2023-03-29T16:22:02.890Z,93921.81
2023-03-29T16:24:32.030Z,93926.34
2023-03-29T16:27:01.235Z,93922.03
2023-03-29T16:29:28.742Z,93922.91
2023-03-29T16:31:56.411Z,93925.66
2023-03-29T16:34:23.272Z,93931.44
2023-03-29T16:36:50.642Z,93931.94
2023-03-29T16:39:18.140Z,93936.06
2023-03-29T16:41:48.273Z,93932.63
2023-03-29T16:44:23.178Z,93934.00
2023-03-29T16:46:53.685Z,93930.47
2023-03-29T16:49:20.629Z,93926.16
2023-03-29T16:51:47.941Z,93925.84
2023-03-29T16:54:17.134Z,93921.50
2023-03-29T16:56:43.850Z,93930.66
2023-03-29T16:59:10.641Z,93936.78
2023-03-29T17:01:37.523Z,93941.53
2023-03-29T17:04:04.745Z,93934.91
2023-03-29T17:06:32.620Z,93939.53
2023-03-29T17:09:00.703Z,93938.78
2023-03-29T17:11:28.365Z,93937.03
2023-03-29T17:13:55.204Z,93936.47
2023-03-29T17:16:22.177Z,93922.31
2023-03-29T17:18:49.087Z,93913.25
2023-03-29T17:21:15.826Z,93919.78
2023-03-29T17:23:42.489Z,93915.03
2023-03-29T17:26:09.274Z,93915.09
2023-03-29T17:28:36.239Z,93911.44
2023-03-29T17:31:04.740Z,93914.88
2023-03-29T17:33:31.894Z,93911.13
2023-03-29T17:35:58.645Z,93907.47
2023-03-29T17:38:26.732Z,93918.16
2023-03-29T17:40:54.315Z,93924.22
2023-03-29T17:43:21.582Z,93923.53
2023-03-29T17:45:52.782Z,93928.63
2023-03-29T17:48:19.902Z,93916.25
2023-03-29T17:50:46.688Z,93911.81
2023-03-29T17:53:13.480Z,93911.50
2023-03-29T17:55:41.065Z,93916.88
2023-03-29T17:58:08.242Z,93913.31
2023-03-29T18:00:35.055Z,93922.00
2023-03-29T18:03:02.000Z,93915.28
2023-03-29T18:05:28.770Z,93919.00
2023-03-29T18:07:56.409Z,93914.50
2023-03-29T18:10:23.273Z,93919.69
2023-03-29T18:12:50.160Z,93929.00
2023-03-29T18:15:16.887Z,93932.53
2023-03-29T18:17:43.672Z,93935.88
2023-03-29T18:20:11.863Z,93933.56
2023-03-29T18:22:41.328Z,93946.66
2023-03-29T18:25:09.659Z,93945.44
2023-03-29T18:27:37.918Z,93943.19
2023-03-29T18:30:06.517Z,93944.47
2023-03-29T18:32:33.429Z,93950.16
2023-03-29T18:35:02.270Z,93953.00
2023-03-29T18:37:29.103Z,93949.47
2023-03-29T18:39:55.823Z,93956.09
2023-03-29T18:42:22.569Z,93954.88
2023-03-29T18:44:49.271Z,93946.13
2023-03-29T18:47:18.217Z,93951.00
2023-03-29T18:49:44.962Z,93931.25
2023-03-29T18:52:11.750Z,93933.38
2023-03-29T18:54:38.853Z,93926.84
2023-03-29T18:57:05.685Z,93927.78
2023-03-29T18:59:32.432Z,93928.47
2023-03-29T19:02:00.124Z,93927.19
2023-03-29T19:04:27.234Z,93929.69
2023-03-29T19:06:56.026Z,93924.59
2023-03-29T19:09:23.297Z,93933.97
2023-03-29T19:11:49.942Z,93924.84
2023-03-29T19:14:17.633Z,93915.47
2023-03-29T19:16:44.299Z,93921.09
2023-03-29T19:19:11.089Z,93908.91
2023-03-29T19:21:38.611Z,93909.72
2023-03-29T19:24:07.644Z,93919.19
2023-03-29T19:26:34.338Z,93909.72
2023-03-29T19:29:01.264Z,93904.53
2023-03-29T19:31:28.379Z,93896.03
2023-03-29T19:33:55.197Z,93905.81
2023-03-29T19:36:22.209Z,93912.34
2023-03-29T19:38:48.981Z,93903.75
2023-03-29T19:41:15.883Z,93905.06
2023-03-29T19:43:42.624Z,93913.16
2023-03-29T19:46:11.581Z,93906.34
2023-03-29T19:48:39.220Z,93900.72
2023-03-29T19:51:06.712Z,93901.69
2023-03-29T19:53:34.323Z,93897.56
2023-03-29T19:56:04.451Z,93900.41
2023-03-29T19:58:31.529Z,93898.59
2023-03-29T20:00:58.173Z,93902.72
2023-03-29T20:03:28.247Z,93907.13
2023-03-29T20:05:56.540Z,93897.75
2023-03-29T20:08:24.746Z,93889.91
2023-03-29T20:11:10.575Z,93891.44
2023-03-29T20:13:41.072Z,93893.53
2023-03-29T20:16:13.933Z,93896.72
2023-03-29T20:18:40.714Z,93895.34
2023-03-29T20:21:09.011Z,93890.63
2023-03-29T20:23:36.504Z,93889.59
2023-03-29T20:26:03.471Z,93894.91
2023-03-29T20:28:30.405Z,93890.97
2023-03-29T20:30:57.117Z,93883.06
2023-03-29T20:33:23.948Z,93870.81
2023-03-29T20:35:50.848Z,93875.22
2023-03-29T20:38:17.573Z,93872.13
2023-03-29T20:40:44.948Z,93872.47
2023-03-29T20:43:13.416Z,93876.50
2023-03-29T20:45:52.202Z,93880.19
2023-03-29T20:48:23.269Z,93875.56
2023-03-29T20:50:51.363Z,93877.97
2023-03-29T20:53:20.326Z,93869.78
2023-03-29T20:55:49.629Z,93864.03
2023-03-29T20:58:16.433Z,93860.84
2023-03-29T21:00:43.770Z,93860.41
2023-03-29T21:03:11.088Z,93854.47
2023-03-29T21:05:38.949Z,93860.69
2023-03-29T21:08:06.074Z,93863.53
2023-03-29T21:10:32.842Z,93859.53
2023-03-29T21:13:00.084Z,93854.47
2023-03-29T21:15:28.716Z,93855.34
2023-03-29T21:17:55.865Z,93856.78
2023-03-29T21:20:22.732Z,93847.00
2023-03-29T21:22:49.429Z,93852.16
2023-03-29T21:25:16.169Z,93852.25
2023-03-29T21:27:43.328Z,93855.00
2023-03-29T21:30:10.950Z,93857.81
2023-03-29T21:32:37.958Z,93846.03
2023-03-29T21:35:04.994Z,93845.34
2023-03-29T21:37:31.751Z,93843.03
2023-03-29T21:39:58.594Z,93846.53
2023-03-29T21:42:25.518Z,93838.63
2023-03-29T21:44:52.205Z,93840.63
2023-03-29T21:47:18.989Z,93843.38
2023-03-29T21:49:45.740Z,93841.38
2023-03-29T21:52:13.083Z,93844.13
2023-03-29T21:54:39.755Z,93844.59
2023-03-29T21:57:06.551Z,93837.19
2023-03-29T21:59:33.473Z,93843.56
2023-03-29T22:02:00.538Z,93844.06
2023-03-29T22:04:36.576Z,93836.91
2023-03-29T22:07:05.152Z,93838.97
2023-03-29T22:09:33.312Z,93841.72
2023-03-29T22:12:01.492Z,93837.00
2023-03-29T22:14:30.995Z,93833.41
2023-03-29T22:16:57.715Z,93836.91
2023-03-29T22:19:24.431Z,93838.47
2023-03-29T22:21:51.450Z,93835.38
2023-03-29T22:24:18.482Z,93833.53
2023-03-29T22:26:45.258Z,93840.34
2023-03-29T22:29:12.195Z,93834.41
2023-03-29T22:31:39.458Z,93835.19
2023-03-29T22:34:06.797Z,93834.75
2023-03-29T22:36:33.650Z,93827.69
2023-03-29T22:39:00.536Z,93832.00
2023-03-29T22:41:28.204Z,93830.78
2023-03-29T22:43:57.573Z,93828.22
2023-03-29T22:46:25.134Z,93828.22
2023-03-29T22:48:52.376Z,93825.13
2023-03-29T22:51:19.989Z,93826.66
2023-03-29T22:53:47.086Z,93821.59
2023-03-29T22:56:15.530Z,93819.28
2023-03-29T22:58:42.327Z,93823.56
2023-03-29T23:01:09.295Z,93822.38
2023-03-29T23:03:36.094Z,93813.34
2023-03-29T23:06:02.837Z,93821.16
2023-03-29T23:08:31.395Z,93822.03
2023-03-29T23:10:58.398Z,93815.75
2023-03-29T23:13:29.262Z,93813.50
2023-03-29T23:15:58.947Z,93806.47
2023-03-29T23:18:27.765Z,93810.75
2023-03-29T23:20:56.982Z,93810.25
2023-03-29T23:23:25.479Z,93810.50
2023-03-29T23:25:53.348Z,93807.31
2023-03-29T23:28:23.475Z,93803.81
2023-03-29T23:31:02.515Z,93802.59
2023-03-29T23:33:33.338Z,93801.91
2023-03-29T23:36:04.638Z,93803.63
2023-03-29T23:38:33.346Z,93797.78
2023-03-29T23:41:02.386Z,93804.72
2023-03-29T23:43:32.677Z,93793.47
2023-03-29T23:46:05.136Z,93795.94
2023-03-29T23:48:32.564Z,93790.13
2023-03-29T23:50:59.175Z,93794.31
2023-03-29T23:53:28.638Z,93790.56
2023-03-29T23:55:58.323Z,93786.28
2023-03-29T23:58:24.964Z,93786.06
